This is the latest recevied weather packets stored in our database for station/object DK6GC-10. If no packets are shown the sender has not sent any weather packets the latest 10 day(s).
| Time | Temp. | Humidity | Pressure | Rain* | Wind** | Luminosity | Snow |
|---|---|---|---|---|---|---|---|
| 1777761024 | 15.56° C | 68% | 1016.9 hPa | - | - | - | - |
| 1777760124 | 15.56° C | 67% | 1016.9 hPa | - | - | - | - |
| 1777759224 | 15.56° C | 66% | 1016.9 hPa | - | - | - | - |
| 1777758324 | 15.56° C | 68% | 1016.8 hPa | - | - | - | - |
| 1777757423 | 15.56° C | 67% | 1016.6 hPa | - | - | - | - |
| 1777756523 | 15.56° C | 69% | 1016.7 hPa | - | - | - | - |
| 1777755623 | 15.56° C | 67% | 1016.8 hPa | - | - | - | - |
| 1777754722 | 16.11° C | 65% | 1016.9 hPa | - | - | - | - |
| 1777753822 | 16.11° C | 66% | 1016.8 hPa | - | - | - | - |
| 1777752922 | 16.67° C | 64% | 1016.7 hPa | - | - | - | - |
| 1777752022 | 16.67° C | 65% | 1016.6 hPa | - | - | - | - |
| 1777751122 | 17.22° C | 62% | 1016.5 hPa | - | - | - | - |
| 1777750222 | 17.22° C | 62% | 1016.5 hPa | - | - | - | - |
| 1777749321 | 17.78° C | 62% | 1016.5 hPa | - | - | - | - |
| 1777748420 | 17.78° C | 63% | 1016.5 hPa | - | - | - | - |
| 1777747520 | 18.33° C | 61% | 1016.4 hPa | - | - | - | - |
| 1777746620 | 18.89° C | 63% | 1016.4 hPa | - | - | - | - |
| 1777745720 | 20° C | 58% | 1016.3 hPa | - | - | - | - |
| 1777744824 | 20.56° C | 56% | 1016.3 hPa | - | - | - | - |
| 1777743924 | 21.67° C | 51% | 1016.3 hPa | - | - | - | - |
| 1777743024 | 22.22° C | 52% | 1016.4 hPa | - | - | - | - |
| 1777742124 | 22.78° C | 46% | 1016.4 hPa | - | - | - | - |
| 1777741223 | 23.89° C | 44% | 1016.5 hPa | - | - | - | - |
| 1777740323 | 24.44° C | 41% | 1016.6 hPa | - | - | - | - |
| 1777739423 | 25° C | 39% | 1016.8 hPa | - | - | - | - |
* Rain since midnight (hover to see other rain measurements)
** Current wind speed in m/s (hover to see current wind gust speed)